Αναφορές Αεροδρομίων

 

KSJC - San Jose, California, USA
Distance from station: ΒΑ 14km
Ενημερώθηκε: 19/04/2021 18:53
Συννεφιά
Συννεφιά
 Ανεμος από calm
Ανεμος: Απνοια
Θερμοκρασία: 12°C
Σημείο Δρόσου: 8°C
Υγρασία: 77%
Βαρόμετρο: 1020.7 hPa
Clouds: Συννεφιά
Visibility: 16 km
Cloud details: Few Clouds 0 m
Σχεδόν νεφελώδης 305 m
Συννεφιά 3048 m
2021/04/19 15:53 KSJC 191553Z 00000KT 10SM FEW000 BKN010 OVC100 12/08 A3014 RMK AO2 SLP206 T01170083
KNUQ - Moffett Nas/Mtn, California, USA
Distance from station: Β 14km
Ενημερώθηκε: 14/04/2021 01:40
NOT Current

 
2021/04/13 22:40 KNUQ 132240Z AUTO RMK AO2 PNO PWINO TSNO
 
KPAO - Palo Alto, California, USA
Distance from station: ΒΒΔ 23km
Ενημερώθηκε: 19/04/2021 18:47
Μερικώς νεφελώδης
Μερικώς νεφελώδης
 Ανεμος από calm
Ανεμος: Απνοια
Θερμοκρασία: 11°C
Σημείο Δρόσου: 8°C
Υγρασία: 82%
Βαρόμετρο: 1021 hPa
Clouds: Μερικώς νεφελώδης
Visibility: 16 km
Cloud details: Μερικώς νεφελώδης 457 m
2021/04/19 15:47 KPAO 191547Z 00000KT 10SM SCT015 11/08 A3015
KRHV - San Jose/Reid, California, USA
Distance from station: ΑΒΑ 19km
Ενημερώθηκε: 19/04/2021 18:47
Σχεδόν νεφελώδης
Σχεδόν νεφελώδης
 Ανεμος από calm
Ανεμος: Απνοια
Θερμοκρασία: 12°C
Σημείο Δρόσου: 8°C
Υγρασία: 77%
Βαρόμετρο: 1020.7 hPa
Clouds: Σχεδόν νεφελώδης
Visibility: 16 km
Cloud details: Σχεδόν νεφελώδης 914 m
2021/04/19 15:47 KRHV 191547Z 00000KT 10SM BKN030 12/08 A3014
 
KOAK - Oakland, California, USA
Distance from station: ΒΒΔ 50km
Ενημερώθηκε: 19/04/2021 18:53
Συννεφιά
Συννεφιά
 Ανεμος από ΔΝΔ
Ανεμος: ΔΝΔ 7 km/h
Θερμοκρασία: 11°C
Σημείο Δρόσου: 8°C
Υγρασία: 82%
Βαρόμετρο: 1021 hPa
Clouds: Συννεφιά
Visibility: 16 km
Cloud details: Μερικώς νεφελώδης 244 m
Συννεφιά 305 m
2021/04/19 15:53 KOAK 191553Z 24004KT 10SM SCT008 OVC010 11/08 A3015 RMK AO2 SLP210 T01060078
KSQL - San Carlos Airpo, California, USA
Distance from station: ΒΔ 34km
Ενημερώθηκε: 19/04/2021 18:52
Μερικώς νεφελώδης
Μερικώς νεφελώδης
 Ανεμος από ΔΒΔ
Ανεμος: ΔΒΔ 13 km/h
Θερμοκρασία: 12°C
Σημείο Δρόσου: 8°C
Υγρασία: 77%
Βαρόμετρο: 1021 hPa
Clouds: Μερικώς νεφελώδης
Visibility: 16 km
Cloud details: Μερικώς νεφελώδης 457 m
2021/04/19 15:52 KSQL 191552Z 29007KT 10SM SCT015 12/08 A3015
 
KSFO - San Francisco, California, USA
Distance from station: ΒΔ 49km
Ενημερώθηκε: 19/04/2021 18:56
Σχεδόν νεφελώδης
Σχεδόν νεφελώδης
 Ανεμος από ΔΒΔ
Ανεμος: ΔΒΔ 19 km/h
Θερμοκρασία: 12°C
Σημείο Δρόσου: 8°C
Υγρασία: 77%
Βαρόμετρο: 1020.7 hPa
Clouds: Σχεδόν νεφελώδης
Visibility: 14 km
Cloud details: Σχεδόν νεφελώδης 305 m
2021/04/19 15:56 KSFO 191556Z 29010KT 9SM BKN010 12/08 A3014 RMK AO2 SLP206 T01220078
KE16 - San Martin, California, USA
Distance from station: ΑΝΑ 43km
Ενημερώθηκε: 19/04/2021 19:15
Αίθριος
Αίθριος
 Ανεμος από Α
Ανεμος: Α 6 km/h
Θερμοκρασία: 12°C
Σημείο Δρόσου: 7°C
Υγρασία: 72%
Βαρόμετρο: 1021 hPa
Clouds: Αίθριος
Visibility: 16 km
2021/04/19 16:15 KE16 191615Z AUTO 08003KT 10SM CLR 12/07 A3015 RMK AO2
 
KWVI - Watsonville, California, USA
Distance from station: ΝΝΑ 44km
Ενημερώθηκε: 19/04/2021 19:05
Συννεφιά
Συννεφιά
 Ανεμος από ΒΒΑ
Ανεμος: ΒΒΑ 6 km/h
Θερμοκρασία: 10°C
Σημείο Δρόσου: 8°C
Υγρασία: 88%
Βαρόμετρο: 1021 hPa
Clouds: Συννεφιά
Visibility: 13 km
Cloud details: Συννεφιά 183 m
2021/04/19 16:05 KWVI 191605Z AUTO 03003KT 8SM OVC006 10/08 A3015 RMK AO2 T01000078
KHAF - Half Moon Bay, California, USA
Distance from station: ΔΒΔ 50km
Ενημερώθηκε: 19/04/2021 19:15
Mist, Σχεδόν νεφελώδης
Mist, Σχεδόν νεφελώδης
 Ανεμος από ΒΒΔ
Ανεμος: ΒΒΔ 7 km/h
Θερμοκρασία: 9°C
Wind Chill: 8°C
Σημείο Δρόσου: 8°C
Υγρασία: 94%
Βαρόμετρο: 1021.7 hPa
Περίληψη: Mist
Clouds: Σχεδόν νεφελώδης
Visibility: 6 km
Cloud details: Σχεδόν νεφελώδης 244 m
2021/04/19 16:15 KHAF 191615Z AUTO 34004KT 4SM BR BKN008 09/08 A3017 RMK AO2
 
KHWD - Hayward, California, USA
Distance from station: Β 44km
Ενημερώθηκε: 19/04/2021 18:54
Συννεφιά
Συννεφιά
 Ανεμος από ΔΒΔ
Ανεμος: ΔΒΔ 19 km/h
Θερμοκρασία: 11°C
Σημείο Δρόσου: 7°C
Υγρασία: 77%
Βαρόμετρο: 1020.7 hPa
Clouds: Συννεφιά
Visibility: 16 km
Cloud details: Συννεφιά 305 m
2021/04/19 15:54 KHWD 191554Z AUTO 29010KT 10SM OVC010 11/07 A3014 RMK AO2 SLP217 T01110072
KLVK - Livermore, California, USA
Distance from station: ΒΒΑ 51km
Ενημερώθηκε: 19/04/2021 18:53
Αίθριος
Αίθριος
 Ανεμος από ΔΒΔ
Ανεμος: ΔΒΔ 17 km/h
Θερμοκρασία: 13°C
Σημείο Δρόσου: 8°C
Υγρασία: 72%
Βαρόμετρο: 1019.6 hPa
Clouds: Αίθριος
Visibility: 16 km
2021/04/19 15:53 KLVK 191553Z 30009KT 10SM CLR 13/08 A3011 RMK AO2 SLP195 T01280078